Time;durP1;ratioP1;P1;durP2;ratioP2;P2;SDS_P1;SDS_P2;PMS_P1;PMS_P2;Temp;Humidity;BMP_temperature;BMP_pressure;BME280_temperature;BME280_humidity;BME280_pressure;Samples;Min_cycle;Max_cycle;Signal;HPM_P1;HPM_P2
2023/10/23 00:02:14;;;;;;;21.17;8.43;;;;;;;15.70;55.25;100120.21;124762;1099;104175;-73
2023/10/23 00:04:46;;;;;;;22.97;8.63;;;;;;;15.76;55.26;100121.14;124787;1099;102805;-74
2023/10/23 00:07:17;;;;;;;22.20;8.20;;;;;;;15.85;55.43;100122.11;124775;1099;101841;-73
2023/10/23 00:09:48;;;;;;;23.20;8.87;;;;;;;15.94;55.85;100120.45;124735;1099;104249;-73
2023/10/23 00:12:20;;;;;;;23.97;8.47;;;;;;;16.03;55.41;100124.91;124621;1099;104182;-73
2023/10/23 00:14:51;;;;;;;23.67;8.47;;;;;;;16.10;55.51;100120.56;124803;1099;104171;-75
2023/10/23 00:17:22;;;;;;;22.77;8.47;;;;;;;16.14;55.78;100117.95;124328;1101;101964;-73
2023/10/23 00:19:53;;;;;;;24.13;8.23;;;;;;;16.18;56.04;100125.02;124703;1099;104107;-73
2023/10/23 00:22:25;;;;;;;22.50;8.27;;;;;;;16.16;55.76;100124.13;124660;1099;104178;-73
2023/10/23 00:24:56;;;;;;;22.13;7.87;;;;;;;16.09;55.77;100129.38;124707;1099;104175;-73
2023/10/23 00:27:27;;;;;;;23.10;8.37;;;;;;;15.96;56.47;100139.86;124313;1098;104160;-73
2023/10/23 00:29:59;;;;;;;24.77;9.30;;;;;;;15.79;56.34;100139.72;124681;1098;104185;-73
2023/10/23 00:32:30;;;;;;;23.80;9.30;;;;;;;15.62;56.38;100133.37;124671;1099;104175;-73
2023/10/23 00:35:01;;;;;;;22.20;9.63;;;;;;;15.50;56.89;100141.18;124746;1099;104067;-74
2023/10/23 00:37:32;;;;;;;27.70;10.73;;;;;;;15.40;57.27;100134.92;124922;1099;104252;-74
2023/10/23 00:40:04;;;;;;;26.20;9.57;;;;;;;15.37;56.33;100138.41;125001;1099;104160;-74
2023/10/23 00:42:35;;;;;;;22.70;9.03;;;;;;;15.39;56.50;100146.36;124838;1099;104166;-74
2023/10/23 00:45:08;;;;;;;23.87;8.77;;;;;;;15.24;56.96;100141.81;126068;1098;104374;-74
2023/10/23 00:47:40;;;;;;;22.70;9.08;;;;;;;15.15;56.63;100146.99;124874;1098;104173;-73
2023/10/23 00:50:13;;;;;;;25.40;8.83;;;;;;;15.21;57.04;100136.49;124356;1099;101848;-74
2023/10/23 00:52:45;;;;;;;21.10;8.73;;;;;;;15.33;57.56;100128.66;124854;1099;104169;-74
2023/10/23 00:55:16;;;;;;;22.33;8.27;;;;;;;15.41;57.09;100137.58;124751;1099;104246;-73
2023/10/23 00:57:48;;;;;;;24.33;8.80;;;;;;;15.48;56.90;100140.29;124263;1099;104271;-73
2023/10/23 01:00:20;;;;;;;21.80;8.67;;;;;;;15.53;57.71;100144.73;124271;1099;102012;-74
2023/10/23 01:02:51;;;;;;;21.83;8.80;;;;;;;15.43;56.87;100149.05;124230;1099;101957;-74
2023/10/23 01:05:23;;;;;;;24.80;8.90;;;;;;;15.33;58.01;100157.74;124296;1099;104220;-73
2023/10/23 01:07:56;;;;;;;21.93;8.13;;;;;;;15.37;57.28;100153.39;124327;1099;104194;-73
2023/10/23 01:10:27;;;;;;;22.80;8.53;;;;;;;15.42;57.87;100163.13;124285;1099;102033;-73
2023/10/23 01:12:59;;;;;;;20.73;8.20;;;;;;;15.36;58.11;100168.34;124302;1099;105441;-74
2023/10/23 01:15:30;;;;;;;25.57;8.90;;;;;;;15.27;57.55;100178.85;124579;1099;104172;-73
2023/10/23 01:18:01;;;;;;;23.70;8.07;;;;;;;15.22;58.05;100180.53;124739;1098;104197;-73
2023/10/23 01:20:33;;;;;;;23.57;8.40;;;;;;;15.27;57.68;100178.85;124286;1099;102131;-73
2023/10/23 01:23:05;;;;;;;21.67;7.70;;;;;;;15.30;57.64;100186.78;124652;1099;101871;-73
2023/10/23 01:25:36;;;;;;;20.80;7.90;;;;;;;15.32;57.84;100190.36;124737;1099;104213;-74
2023/10/23 01:28:08;;;;;;;20.57;8.33;;;;;;;15.38;58.21;100187.78;124334;1099;104333;-74
2023/10/23 01:30:40;;;;;;;20.13;8.40;;;;;;;15.40;58.00;100196.61;124849;1099;104249;-73
2023/10/23 01:33:12;;;;;;;25.40;8.83;;;;;;;15.41;57.52;100187.81;124779;1099;102673;-73
2023/10/23 01:35:43;;;;;;;19.83;7.93;;;;;;;15.44;57.77;100186.94;124794;1099;104270;-73
2023/10/23 01:38:15;;;;;;;21.63;8.07;;;;;;;15.47;58.64;100197.55;124789;1098;101834;-74
2023/10/23 01:40:46;;;;;;;20.40;8.47;;;;;;;15.49;58.45;100198.48;124774;1099;102313;-74
2023/10/23 01:43:18;;;;;;;23.37;8.60;;;;;;;15.52;57.99;100201.16;124714;1099;101820;-74
2023/10/23 01:45:49;;;;;;;21.80;8.23;;;;;;;15.54;57.70;100183.53;124701;1099;102186;-73
2023/10/23 01:48:21;;;;;;;22.57;8.47;;;;;;;15.58;57.69;100184.44;124653;1099;104194;-73
2023/10/23 01:50:53;;;;;;;21.53;8.83;;;;;;;15.61;57.95;100184.48;124807;1099;101855;-74
2023/10/23 01:53:24;;;;;;;20.03;8.10;;;;;;;15.62;58.69;100186.27;124753;1099;104291;-73
2023/10/23 01:55:55;;;;;;;23.80;8.07;;;;;;;15.66;58.01;100184.52;124752;1099;104166;-74
2023/10/23 01:58:27;;;;;;;23.57;8.13;;;;;;;15.67;58.66;100179.25;124376;1099;104188;-74
2023/10/23 02:00:58;;;;;;;20.13;7.77;;;;;;;15.71;58.79;100189.00;124346;1099;104326;-73
2023/10/23 02:03:30;;;;;;;20.73;7.77;;;;;;;15.73;58.61;100181.95;124365;1099;104287;-73
2023/10/23 02:06:02;;;;;;;23.10;7.50;;;;;;;15.78;58.87;100190.88;124695;1098;104163;-73
2023/10/23 02:08:33;;;;;;;21.17;7.40;;;;;;;15.75;58.82;100190.81;124788;1099;104255;-73
2023/10/23 02:11:05;;;;;;;24.05;7.60;;;;;;;15.74;58.94;100183.73;124696;1099;104231;-73
2023/10/23 02:13:38;;;;;;;19.60;7.50;;;;;;;15.77;58.24;100183.80;124782;1099;104444;-73
2023/10/23 02:16:09;;;;;;;22.07;8.40;;;;;;;15.80;58.71;100177.66;124782;1099;104182;-73
2023/10/23 02:18:40;;;;;;;20.40;7.50;;;;;;;15.83;58.36;100190.02;124297;1099;104334;-73
2023/10/23 02:21:12;;;;;;;22.63;7.90;;;;;;;15.85;59.03;100190.91;124386;1099;104169;-73
2023/10/23 02:23:44;;;;;;;20.43;7.70;;;;;;;15.85;58.10;100189.16;124355;1099;104275;-73
2023/10/23 02:26:15;;;;;;;21.53;8.17;;;;;;;15.85;58.35;100188.26;124738;1099;102326;-73
2023/10/23 02:28:47;;;;;;;22.27;7.60;;;;;;;15.85;58.22;100204.13;124770;1099;104188;-74
2023/10/23 02:31:18;;;;;;;21.57;9.10;;;;;;;15.82;59.15;100202.36;124742;1099;104172;-73
2023/10/23 02:33:51;;;;;;;25.07;8.60;;;;;;;15.79;59.08;100208.50;124823;1099;104220;-73
2023/10/23 02:36:22;;;;;;;20.50;8.40;;;;;;;15.74;58.52;100209.31;124861;1098;104176;-73
2023/10/23 02:38:55;;;;;;;24.57;8.70;;;;;;;15.72;59.15;100209.30;124757;1099;104178;-74
2023/10/23 02:41:29;;;;;;;23.90;8.30;;;;;;;15.74;58.65;100218.12;124759;1099;104217;-73
2023/10/23 02:44:00;;;;;;;21.68;8.58;;;;;;;15.74;59.24;100218.12;124749;1099;104178;-73
2023/10/23 02:46:34;;;;;;;23.10;8.17;;;;;;;15.74;59.12;100219.89;124698;1099;104258;-73
2023/10/23 02:49:05;;;;;;;22.00;7.93;;;;;;;15.75;58.90;100213.71;124805;1099;104187;-74
2023/10/23 02:51:38;;;;;;;22.73;8.13;;;;;;;15.76;59.36;100221.66;124734;1099;104054;-73
2023/10/23 02:54:09;;;;;;;22.70;8.13;;;;;;;15.77;58.47;100218.19;125071;1099;101827;-74
2023/10/23 02:56:41;;;;;;;22.87;8.20;;;;;;;15.81;59.07;100225.27;124729;1099;102351;-73
2023/10/23 02:59:12;;;;;;;26.43;8.13;;;;;;;15.80;58.78;100222.64;124709;1099;104623;-73
2023/10/23 03:01:44;;;;;;;27.10;8.77;;;;;;;15.81;58.71;100225.27;124704;1099;104191;-73
2023/10/23 03:04:15;;;;;;;22.53;8.17;;;;;;;15.81;58.65;100224.39;124850;1099;104264;-73
2023/10/23 03:06:46;;;;;;;23.63;8.30;;;;;;;15.79;58.76;100227.02;124777;1099;104258;-73
2023/10/23 03:09:18;;;;;;;24.03;8.40;;;;;;;15.72;59.22;100229.55;124699;1099;104169;-74
2023/10/23 03:11:49;;;;;;;24.33;8.70;;;;;;;15.69;58.87;100234.81;124756;1099;101827;-73
2023/10/23 03:14:20;;;;;;;24.03;7.93;;;;;;;15.71;59.49;100244.55;124599;1099;101928;-73
2023/10/23 03:16:52;;;;;;;24.63;8.30;;;;;;;15.65;59.58;100239.19;124714;1099;104239;-73
2023/10/23 03:19:25;;;;;;;20.57;8.50;;;;;;;15.56;59.02;100239.09;124324;1099;104225;-73
2023/10/23 03:21:57;;;;;;;22.58;9.23;;;;;;;15.52;59.77;100243.47;124772;1099;102022;-74
2023/10/23 03:24:29;;;;;;;27.87;9.50;;;;;;;15.55;60.12;100253.17;124329;1099;104309;-73
2023/10/23 03:27:02;;;;;;;26.80;10.60;;;;;;;15.50;59.83;100254.88;124834;1098;104332;-73
2023/10/23 03:29:34;;;;;;;26.43;10.50;;;;;;;15.38;59.49;100248.59;124826;1099;104351;-73
2023/10/23 03:32:06;;;;;;;27.23;10.80;;;;;;;15.34;59.78;100245.89;124743;1099;101804;-73
2023/10/23 03:34:37;;;;;;;26.20;10.47;;;;;;;15.31;59.48;100240.56;124806;1099;104278;-73
2023/10/23 03:37:08;;;;;;;27.67;11.03;;;;;;;15.35;60.51;100248.55;124689;1099;104176;-74
2023/10/23 03:39:39;;;;;;;35.77;11.23;;;;;;;15.39;59.49;100238.89;124802;1099;104169;-73
2023/10/23 03:42:11;;;;;;;41.70;11.73;;;;;;;15.44;59.77;100234.53;124739;1099;104245;-73
2023/10/23 03:44:42;;;;;;;31.47;10.97;;;;;;;15.48;60.21;100233.70;124761;1099;104217;-74
2023/10/23 03:47:14;;;;;;;27.87;10.77;;;;;;;15.49;59.74;100231.94;124777;1099;104259;-74
2023/10/23 03:49:47;;;;;;;27.97;11.03;;;;;;;15.50;60.34;100236.38;124695;1099;104240;-74
2023/10/23 03:52:18;;;;;;;27.10;10.13;;;;;;;15.53;60.75;100239.05;124794;1098;101925;-74
2023/10/23 03:54:50;;;;;;;27.30;10.30;;;;;;;15.55;60.27;100238.21;124716;1099;104373;-73
2023/10/23 03:57:21;;;;;;;25.00;9.90;;;;;;;15.58;59.91;100234.69;124744;1099;101938;-73
2023/10/23 03:59:52;;;;;;;50.27;12.40;;;;;;;15.60;59.91;100240.91;124749;1099;101935;-73
2023/10/23 04:02:24;;;;;;;30.87;11.00;;;;;;;15.61;59.68;100237.37;124802;1099;104185;-74
2023/10/23 04:04:55;;;;;;;27.07;10.20;;;;;;;15.61;60.12;100240.02;125953;1098;104312;-75
2023/10/23 04:07:26;;;;;;;28.87;9.73;;;;;;;15.62;60.34;100233.87;125346;1099;108738;-78
2023/10/23 04:09:57;;;;;;;33.43;10.67;;;;;;;15.62;59.80;100249.73;125568;1099;104230;-79
2023/10/23 04:12:29;;;;;;;118.37;15.83;;;;;;;15.63;60.33;100251.52;125553;1099;104179;-76
2023/10/23 04:15:00;;;;;;;92.07;16.00;;;;;;;15.62;60.71;100249.73;126347;1098;102179;-76
2023/10/23 04:17:31;;;;;;;40.10;10.57;;;;;;;15.64;59.77;100258.56;125251;1099;101958;-77
2023/10/23 04:20:04;;;;;;;27.53;9.13;;;;;;;15.64;59.95;100259.47;125234;1099;102222;-76
2023/10/23 04:22:35;;;;;;;29.00;9.63;;;;;;;15.67;60.70;100257.72;125197;1098;101965;-76
2023/10/23 04:25:08;;;;;;;26.07;9.53;;;;;;;15.64;60.05;100269.14;125182;1099;104232;-76
2023/10/23 04:27:39;;;;;;;26.90;9.20;;;;;;;15.57;60.61;100280.54;125232;1099;101800;-76
2023/10/23 04:30:12;;;;;;;30.77;10.20;;;;;;;15.46;60.19;100281.28;125222;1098;104277;-76
2023/10/23 04:32:44;;;;;;;30.30;10.23;;;;;;;15.40;61.02;100278.56;125423;1099;102381;-78
2023/10/23 04:35:15;;;;;;;26.87;8.73;;;;;;;15.36;60.03;100284.67;125491;1099;101852;-76
2023/10/23 04:37:46;;;;;;;30.50;9.20;;;;;;;15.29;60.30;100288.13;125398;1099;101881;-77
2023/10/23 04:40:18;;;;;;;25.50;9.30;;;;;;;15.26;59.67;100293.38;125452;1099;104268;-78
2023/10/23 04:42:49;;;;;;;31.47;9.43;;;;;;;15.28;60.42;100287.22;125381;1099;104187;-79
2023/10/23 04:45:21;;;;;;;25.57;9.17;;;;;;;15.33;60.24;100297.85;125446;1099;101955;-78
2023/10/23 04:47:52;;;;;;;29.60;9.80;;;;;;;15.36;60.25;100304.94;125393;1099;104175;-77
2023/10/23 04:50:26;;;;;;;23.43;9.60;;;;;;;15.36;60.50;100307.59;125498;1099;104252;-78
2023/10/23 04:52:59;;;;;;;24.90;9.40;;;;;;;15.36;60.53;100313.75;125435;1099;102302;-77
2023/10/23 04:55:34;;;;;;;23.03;9.23;;;;;;;15.37;60.10;100315.54;125435;1099;104204;-78
2023/10/23 04:58:09;;;;;;;26.27;10.07;;;;;;;15.32;60.53;100324.27;125355;1099;104184;-78
2023/10/23 05:00:41;;;;;;;26.03;10.10;;;;;;;15.23;60.83;100325.05;125478;1099;104169;-78
2023/10/23 05:03:14;;;;;;;27.80;10.07;;;;;;;15.20;60.95;100330.29;125338;1099;104188;-79
2023/10/23 05:05:49;;;;;;;26.00;10.60;;;;;;;15.18;61.08;100332.03;125493;1099;104169;-79
2023/10/23 05:08:20;;;;;;;29.50;9.87;;;;;;;15.14;60.23;100346.06;125547;1099;104274;-79
2023/10/23 05:10:53;;;;;;;22.67;9.40;;;;;;;15.03;60.67;100349.42;125249;1099;102080;-78
2023/10/23 05:13:25;;;;;;;25.30;8.63;;;;;;;14.93;61.36;100363.38;125163;1099;104173;-78
2023/10/23 05:16:08;;;;;;;24.90;9.80;;;;;;;14.88;60.70;100370.31;125321;1099;102004;-77
2023/10/23 05:18:40;;;;;;;23.60;9.43;;;;;;;14.90;60.83;100363.32;125283;1099;105562;-77
2023/10/23 05:21:12;;;;;;;22.07;9.40;;;;;;;14.95;61.62;100372.20;125226;1099;104310;-79
2023/10/23 05:23:43;;;;;;;30.50;10.17;;;;;;;15.02;60.97;100376.73;124839;1099;104296;-77
2023/10/23 05:26:16;;;;;;;25.47;9.87;;;;;;;15.06;61.94;100381.17;125429;1099;104223;-77
2023/10/23 05:28:49;;;;;;;25.83;8.90;;;;;;;15.01;61.07;100390.80;125356;1099;104194;-77
2023/10/23 05:31:21;;;;;;;21.62;8.85;;;;;;;14.92;61.31;100398.57;125908;1098;101927;-76
2023/10/23 05:34:11;;;;;;;29.90;9.53;;;;;;;14.84;61.33;100395.80;125186;1098;104258;-76
2023/10/23 05:36:43;;;;;;;39.13;10.30;;;;;;;14.84;61.08;100395.80;124889;1099;104188;-74
2023/10/23 05:39:18;;;;;;;23.60;7.77;;;;;;;14.89;61.73;100401.16;124650;1099;104181;-77
2023/10/23 05:41:52;;;;;;;26.07;9.13;;;;;;;14.90;61.82;100405.59;124905;1099;101897;-81
2023/10/23 05:44:25;;;;;;;24.07;8.03;;;;;;;14.92;61.43;100420.58;125535;1099;102077;-83
2023/10/23 05:46:57;;;;;;;26.07;7.80;;;;;;;14.90;61.66;100414.39;125510;1098;101988;-82
2023/10/23 05:49:33;;;;;;;28.43;8.63;;;;;;;14.88;61.46;100423.14;124905;1099;108182;-82
2023/10/23 05:52:05;;;;;;;20.73;8.13;;;;;;;14.81;61.89;100430.09;125495;1099;101812;-76
2023/10/23 05:54:48;;;;;;;24.87;8.10;;;;;;;14.79;62.47;100433.55;126540;1098;101768;-80
2023/10/23 05:57:24;;;;;;;;;;;;;;;14.74;62.18;100437.02;124759;1099;104156;-80
2023/10/23 05:59:56;;;;;;;32.07;9.03;;;;;;;14.73;62.31;100435.23;124751;1099;117860;-76
2023/10/23 06:02:27;;;;;;;32.73;8.57;;;;;;;14.73;62.52;100437.88;124605;1099;104156;-75
2023/10/23 06:04:59;;;;;;;27.50;9.05;;;;;;;14.73;62.25;100437.88;125174;1099;101824;-78
2023/10/23 06:07:38;;;;;;;22.53;7.67;;;;;;;14.76;62.90;100449.34;124954;1099;104169;-75
2023/10/23 06:10:10;;;;;;;26.23;8.10;;;;;;;14.77;62.64;100449.38;124752;1099;104248;-73
2023/10/23 06:12:59;;;;;;;35.43;9.77;;;;;;;14.79;62.27;100449.40;124393;1099;104303;-76
2023/10/23 06:15:50;;;;;;;33.13;8.27;;;;;;;14.81;62.32;100460.91;125015;1099;104227;-76
2023/10/23 06:18:22;;;;;;;26.37;7.83;;;;;;;14.85;62.77;100465.36;125014;1099;104057;-79
2023/10/23 06:21:03;;;;;;;30.23;8.23;;;;;;;14.85;63.03;100462.72;124844;1099;104166;-75
2023/10/23 06:23:37;;;;;;;25.50;7.53;;;;;;;14.90;62.23;100469.00;125096;1098;104178;-76
2023/10/23 06:26:08;;;;;;;35.78;8.63;;;;;;;14.94;62.78;100473.45;126146;1098;102213;-77
2023/10/23 06:28:40;;;;;;;36.60;9.03;;;;;;;15.01;62.32;100477.98;125141;1099;104063;-74
2023/10/23 06:31:19;;;;;;;39.23;9.50;;;;;;;15.11;62.37;100481.67;125039;1099;104181;-75
2023/10/23 06:33:52;;;;;;;51.63;10.33;;;;;;;15.17;62.88;100492.34;125614;1099;102329;-76
2023/10/23 06:36:44;;;;;;;62.20;12.97;;;;;;;15.21;63.42;100495.95;125168;1099;101855;-76
2023/10/23 06:39:51;;;;;;;26.87;8.57;;;;;;;15.25;63.39;100498.67;126182;1099;102689;-76
2023/10/23 06:42:28;;;;;;;28.13;7.60;;;;;;;15.34;63.49;100489.10;124920;1099;101994;-75
2023/10/23 06:45:06;;;;;;;31.00;8.33;;;;;;;15.44;63.42;100497.20;126163;1098;101935;-73
2023/10/23 06:47:43;;;;;;;22.83;7.47;;;;;;;15.56;63.02;100500.90;126090;1097;104195;-72
2023/10/23 06:50:25;;;;;;;25.37;8.87;;;;;;;15.70;63.48;100506.41;125009;1099;104204;-74
2023/10/23 06:53:34;;;;;;;24.33;7.53;;;;;;;15.88;62.85;100508.44;126132;1098;104341;-74
2023/10/23 06:56:47;;;;;;;19.07;6.60;;;;;;;16.03;62.61;100508.66;124602;1102;104179;-77
2023/10/23 06:59:33;;;;;;;19.70;7.10;;;;;;;16.18;62.92;100510.63;125335;1099;102005;-77
2023/10/23 07:06:18;;;;;;;27.13;6.97;;;;;;;16.50;62.63;100518.98;124720;1102;104412;-78
2023/10/23 07:08:51;;;;;;;25.53;7.83;;;;;;;16.66;62.50;100530.62;124523;1102;104232;-77
2023/10/23 07:11:25;;;;;;;40.50;8.90;;;;;;;16.77;62.98;100521.92;124951;1099;107528;-76
2023/10/23 07:14:00;;;;;;;29.63;7.90;;;;;;;16.88;62.49;100526.47;125334;1099;104223;-75
2023/10/23 07:16:38;;;;;;;35.37;9.40;;;;;;;17.04;62.33;100526.63;124857;1099;102036;-75
2023/10/23 07:22:08;;;;;;;23.20;6.73;;;;;;;17.36;62.07;100520.75;125356;1099;117932;-77
2023/10/23 07:24:42;;;;;;;21.50;6.30;;;;;;;17.49;62.34;100521.72;126209;1099;101957;-81
2023/10/23 07:27:16;;;;;;;22.60;5.87;;;;;;;17.57;62.39;100517.35;126394;1098;101749;-81
2023/10/23 07:30:14;;;;;;;18.47;5.53;;;;;;;17.69;62.02;100527.17;125515;1099;102229;-83
2023/10/23 07:33:13;;;;;;;;;;;;;;;;;;;;;
2023/10/23 07:36:34;;;;;;;16.13;5.27;;;;;;;17.84;61.58;100532.59;126173;1099;104174;-77
2023/10/23 07:39:13;;;;;;;20.87;5.70;;;;;;;17.92;61.47;100536.20;124643;1099;104196;-77
2023/10/23 07:41:44;;;;;;;23.43;6.43;;;;;;;18.01;61.47;100518.55;125307;1099;104242;-78
2023/10/23 07:44:22;;;;;;;15.03;4.93;;;;;;;18.14;61.27;100531.90;126200;1098;101887;-78
2023/10/23 07:46:54;;;;;;;17.43;5.10;;;;;;;18.25;60.96;100529.30;124903;1099;101982;-77
2023/10/23 07:49:28;;;;;;;20.43;5.07;;;;;;;18.37;60.85;100530.22;125652;1099;104169;-76
2023/10/23 07:52:08;;;;;;;15.77;5.13;;;;;;;18.46;60.54;100535.58;125820;1099;104239;-80
2023/10/23 07:54:46;;;;;;;26.67;5.73;;;;;;;18.58;60.66;100527.66;125424;1099;104169;-74
2023/10/23 07:57:18;;;;;;;20.60;4.97;;;;;;;18.63;60.17;100528.55;125359;1099;104242;-77
2023/10/23 07:59:50;;;;;;;13.60;4.27;;;;;;;18.73;59.99;100528.57;124881;1099;104194;-77
2023/10/23 08:02:22;;;;;;;15.83;4.70;;;;;;;18.85;59.91;100529.55;124678;1099;102368;-78
2023/10/23 08:04:56;;;;;;;13.67;4.17;;;;;;;19.04;60.11;100533.12;125188;1099;102063;-77
2023/10/23 08:07:28;;;;;;;15.75;4.15;;;;;;;19.19;60.20;100532.23;126402;1098;102377;-76
2023/10/23 08:10:00;;;;;;;11.40;3.47;;;;;;;19.28;59.54;100520.72;125574;1099;101817;-77
2023/10/23 08:12:37;;;;;;;7.33;3.23;;;;;;;19.35;58.88;100530.48;125619;1099;104215;-77
2023/10/23 08:15:12;;;;;;;7.23;3.07;;;;;;;19.35;59.13;100527.83;126553;1098;101955;-78
2023/10/23 08:17:43;;;;;;;8.93;3.30;;;;;;;19.44;58.02;100528.70;125693;1099;104335;-75
2023/10/23 08:20:22;;;;;;;9.33;2.67;;;;;;;19.59;57.79;100520.72;125342;1099;101933;-78
2023/10/23 08:23:12;;;;;;;9.63;3.17;;;;;;;19.80;57.58;100524.27;126397;1098;111663;-75
2023/10/23 08:25:44;;;;;;;8.10;2.70;;;;;;;19.91;57.40;100517.12;126759;1098;101756;-79
2023/10/23 08:28:16;;;;;;;8.70;2.40;;;;;;;20.00;57.19;100517.11;126340;1098;102006;-77
2023/10/23 08:30:47;;;;;;;5.83;2.20;;;;;;;20.18;57.51;100521.50;125151;1098;102056;-76
2023/10/23 08:33:19;;;;;;;10.43;2.50;;;;;;;20.38;57.16;100523.19;125521;1099;104345;-77
2023/10/23 08:35:50;;;;;;;3.27;2.03;;;;;;;20.39;55.36;100530.30;125311;1098;104284;-76
2023/10/23 08:38:24;;;;;;;6.83;2.20;;;;;;;20.42;56.26;100530.29;125328;1099;103416;-80
2023/10/23 08:41:01;;;;;;;4.67;2.13;;;;;;;20.51;55.30;100532.05;125414;1099;104131;-77
2023/10/23 08:43:33;;;;;;;3.90;2.33;;;;;;;20.61;55.33;100531.95;125341;1099;104159;-77
2023/10/23 08:46:09;;;;;;;5.83;2.43;;;;;;;20.74;54.84;100540.84;125094;1099;102198;-75
2023/10/23 08:48:43;;;;;;;4.23;2.37;;;;;;;20.75;54.09;100531.92;125043;1099;102256;-77
2023/10/23 08:51:15;;;;;;;7.23;2.40;;;;;;;20.77;54.26;100532.82;125058;1099;102296;-78
2023/10/23 08:53:54;;;;;;;6.93;2.10;;;;;;;20.81;54.08;100533.67;124949;1099;104214;-76
2023/10/23 08:56:40;;;;;;;7.60;2.20;;;;;;;20.80;52.97;100538.13;125429;1099;104230;-77
2023/10/23 09:02:19;;;;;;;3.20;2.10;;;;;;;20.80;51.87;100543.47;125340;1099;104194;-76
2023/10/23 09:04:50;;;;;;;5.23;2.30;;;;;;;20.76;52.95;100544.37;126246;1098;104175;-75
2023/10/23 09:07:22;;;;;;;5.60;2.23;;;;;;;20.79;52.54;100541.69;125278;1098;104353;-78
2023/10/23 09:09:53;;;;;;;5.10;2.20;;;;;;;20.80;52.45;100543.47;125206;1099;101922;-75
2023/10/23 09:12:35;;;;;;;4.63;2.13;;;;;;;20.76;51.65;100544.37;124794;1098;104252;-76
2023/10/23 09:15:18;;;;;;;6.13;2.30;;;;;;;20.73;51.64;100540.84;124647;1099;104283;-76
2023/10/23 09:17:53;;;;;;;7.17;2.47;;;;;;;20.70;51.83;100540.86;124940;1099;101842;-79
2023/10/23 09:20:26;;;;;;;6.37;2.20;;;;;;;20.69;51.59;100539.95;125026;1099;101893;-77
2023/10/23 09:22:58;;;;;;;5.05;2.77;;;;;;;20.69;51.60;100545.28;124650;1099;104245;-78
2023/10/23 09:25:31;;;;;;;4.90;1.93;;;;;;;20.70;50.89;100535.52;125556;1099;104172;-78
2023/10/23 09:28:03;;;;;;;7.27;2.30;;;;;;;20.72;51.22;100531.06;124988;1099;104299;-81
2023/10/23 09:30:38;;;;;;;5.73;2.23;;;;;;;20.64;50.30;100515.07;125450;1099;101801;-79
2023/10/23 09:33:10;;;;;;;3.37;2.30;;;;;;;20.69;50.59;100520.41;125285;1099;101984;-80
2023/10/23 09:35:43;;;;;;;6.47;2.57;;;;;;;20.64;51.35;100526.64;126334;1098;104175;-78
2023/10/23 09:41:00;;;;;;;5.43;2.80;;;;;;;20.61;50.74;100518.63;125361;1099;104242;-81
2023/10/23 09:43:31;;;;;;;6.27;2.50;;;;;;;20.65;50.33;100512.43;125279;1099;104169;-80
2023/10/23 09:46:08;;;;;;;5.33;2.43;;;;;;;20.71;49.77;100518.61;124936;1099;104268;-80
2023/10/23 09:48:51;;;;;;;7.33;2.90;;;;;;;20.68;50.74;100516.88;125389;1098;104300;-80
2023/10/23 09:51:30;;;;;;;4.00;2.47;;;;;;;20.71;49.55;100510.61;126540;1098;102466;-78
2023/10/23 09:54:06;;;;;;;5.87;2.47;;;;;;;20.69;50.60;100518.63;125730;1099;104691;-84
2023/10/23 09:56:52;;;;;;;3.57;2.00;;;;;;;20.65;49.36;100511.55;126084;1099;104695;-81
2023/10/23 09:59:32;;;;;;;14.50;2.40;;;;;;;20.65;49.46;100508.89;126394;1099;102196;-80
2023/10/23 10:02:06;;;;;;;6.33;2.23;;;;;;;20.73;49.94;100508.84;125872;1099;102112;-80
2023/10/23 10:04:52;;;;;;;6.80;2.20;;;;;;;20.81;49.63;100507.89;126460;1098;101769;-79
2023/10/23 10:07:32;;;;;;;4.57;2.13;;;;;;;20.85;48.75;100507.86;126728;1098;101784;-80
2023/10/23 10:10:08;;;;;;;5.87;2.03;;;;;;;20.87;48.45;100506.97;126760;1098;102279;-83
2023/10/23 10:12:43;;;;;;;7.87;2.27;;;;;;;20.91;48.72;100499.83;126726;1098;101980;-81
2023/10/23 10:15:17;;;;;;;4.63;2.10;;;;;;;20.94;48.73;100507.80;126592;1096;102104;-82
2023/10/23 10:17:51;;;;;;;10.28;2.35;;;;;;;20.97;48.79;100497.12;125991;1098;104214;-78
2023/10/23 10:20:25;;;;;;;5.80;2.37;;;;;;;21.03;48.69;100504.20;126584;1098;102034;-81
2023/10/23 10:23:05;;;;;;;6.35;2.52;;;;;;;21.02;48.92;100492.66;126380;1099;101920;-82
2023/10/23 10:25:48;;;;;;;6.03;2.40;;;;;;;21.05;48.79;100499.73;125033;1099;117743;-80
2023/10/23 10:28:31;;;;;;;4.47;2.30;;;;;;;20.99;48.78;100490.88;124718;1099;104359;-80
2023/10/23 10:31:05;;;;;;;19.33;2.70;;;;;;;20.98;48.35;100490.89;125223;1099;104153;-78
2023/10/23 10:33:42;;;;;;;5.73;2.90;;;;;;;21.03;47.96;100488.20;126355;1098;104185;-79
2023/10/23 10:36:22;;;;;;;9.57;3.20;;;;;;;21.00;48.14;100471.33;126085;1099;101806;-81
2023/10/23 10:39:01;;;;;;;7.13;2.43;;;;;;;21.14;48.77;100480.98;126043;1099;104642;-79
2023/10/23 10:41:40;;;;;;;7.50;2.67;;;;;;;21.14;48.06;100484.53;124795;1102;104365;-83
2023/10/23 10:44:13;;;;;;;12.13;2.90;;;;;;;21.13;48.66;100477.44;125958;1099;104168;-80
2023/10/23 10:46:46;;;;;;;7.05;2.80;;;;;;;21.19;48.72;100477.39;125238;1099;104175;-80
2023/10/23 10:49:22;;;;;;;7.43;2.90;;;;;;;21.25;48.35;100472.89;125484;1099;104175;-78
2023/10/23 10:51:55;;;;;;;5.30;2.80;;;;;;;21.26;47.81;100474.67;124620;1099;102155;-77
2023/10/23 10:54:35;;;;;;;10.03;2.70;;;;;;;21.29;48.22;100466.64;124856;1099;104380;-77
2023/10/23 10:57:20;;;;;;;8.37;2.50;;;;;;;21.33;47.83;100466.60;125508;1099;104312;-80
2023/10/23 10:59:58;;;;;;;24.07;4.57;;;;;;;21.39;47.48;100465.64;124856;1099;104772;-76
2023/10/23 11:02:32;;;;;;;25.00;3.70;;;;;;;21.44;47.74;100470.94;124856;1099;104293;-82
2023/10/23 11:05:10;;;;;;;21.50;4.30;;;;;;;21.48;46.94;100468.22;125178;1099;104249;-85
2023/10/23 11:07:44;;;;;;;11.30;3.00;;;;;;;21.50;47.70;100461.14;125484;1098;102190;-80
2023/10/23 11:10:17;;;;;;;17.93;2.70;;;;;;;21.56;47.87;100465.51;125716;1098;104166;-82
2023/10/23 11:12:50;;;;;;;29.50;5.20;;;;;;;21.65;46.90;100456.53;126209;1098;104169;-77
2023/10/23 11:15:21;;;;;;;23.00;3.53;;;;;;;21.69;46.88;100455.58;124902;1099;104268;-78
2023/10/23 11:17:53;;;;;;;6.67;2.10;;;;;;;21.71;47.56;100451.13;125321;1099;104188;-82
2023/10/23 11:20:31;;;;;;;10.30;2.33;;;;;;;21.70;46.84;100446.68;125573;1099;103765;-78
2023/10/23 11:23:04;;;;;;;5.10;2.10;;;;;;;21.70;46.86;100444.88;126245;1098;102188;-82
2023/10/23 11:25:38;;;;;;;10.60;2.27;;;;;;;21.72;46.84;100448.44;125570;1099;102102;-87
2023/10/23 11:28:22;;;;;;;7.87;2.30;;;;;;;21.69;46.54;100440.47;126131;1098;104208;-81
2023/10/23 11:31:08;;;;;;;8.17;2.40;;;;;;;21.66;46.18;100440.50;126278;1098;102085;-78
2023/10/23 11:34:31;;;;;;;;;;;;;;;;;;;;;
2023/10/23 11:37:19;;;;;;;10.20;2.47;;;;;;;21.53;45.68;100430.84;127246;1098;101515;-79
2023/10/23 11:40:05;;;;;;;4.60;2.30;;;;;;;21.54;46.18;100435.28;126842;1099;104207;-81
2023/10/23 11:43:00;;;;;;;6.57;2.20;;;;;;;21.56;45.46;100435.27;127392;1098;101591;-87
2023/10/23 11:45:39;;;;;;;7.30;2.27;;;;;;;21.54;45.10;100429.95;126868;1098;104284;-83
2023/10/23 11:48:15;;;;;;;9.90;2.30;;;;;;;21.55;45.30;100431.73;126965;1098;101846;-84
2023/10/23 11:50:47;;;;;;;3.83;1.73;;;;;;;21.54;45.44;100433.49;126329;1099;101772;-80
2023/10/23 11:53:19;;;;;;;7.90;2.53;;;;;;;21.54;45.48;100422.81;127406;1098;101753;-82